DLH2P KSAN-EDDM
Flight info
| Callsign | DLH2P |
|---|---|
| Flight time | N/A |
| Altitude | 36000 |
| Route | ZZOOO4 MTBAL DCT CADEZ DCT HAKMN/N0483F370 Q73 LAKRR DCT BAWER DCT KU60Q DCT KU72S DCT KD84U DCT KU06W DCT KP18Y DCT SEGAP DCT 57N090W/N0479F390 62N080W DCT BEZED DCT AYROU/M084F390 DCT EPMAN DCT 67N050W 6730N04000W 6730N03000W 67N020W/M084F410 65N010W DCT GUNPA/N0478F410 DCT MITSI P619 BAVTA P992 ATTUS DCT ELSOB DCT ABGUS DCT SODRO/N0453F310 T703 LULAR/N0451F300 T105 LANDU LANDU2B |
| Aircraft | A359/H-SADE2E3GHIJ1J2J3J4J5M1P2RWXYZ/LB1D1 |
Departure
| Time | 2026-04-26 00:15 |
|---|---|
| Airport | San Diego International Airport (KSAN) |
Arrival
| Time | N/A |
|---|---|
| Airport | Munich Airport (EDDM) |
| Time | Latitude | Longitude | Altitude | Speed | Heading |
|---|---|---|---|---|---|
| 2026-04-25 23:18 | 32.73255 | -117.20542 | 36 ft | 0 kts | 163° |
| 2026-04-26 00:00 | 32.73259 | -117.20543 | 29 ft | 3 kts | 163° |
| 2026-04-26 00:00 | 32.73285 | -117.20553 | 27 ft | 4 kts | 163° |
| 2026-04-26 00:00 | 32.73305 | -117.20560 | 28 ft | 4 kts | 160° |
| 2026-04-26 00:00 | 32.73329 | -117.20573 | 27 ft | 4 kts | 135° |
| 2026-04-26 00:01 | 32.73339 | -117.20596 | 29 ft | 2 kts | 90° |
| 2026-04-26 00:01 | 32.73340 | -117.20627 | 27 ft | 3 kts | 90° |
| 2026-04-26 00:01 | 32.73340 | -117.20633 | 27 ft | 0 kts | 90° |
| 2026-04-26 00:05 | 32.73340 | -117.20619 | 28 ft | 5 kts | 90° |
| 2026-04-26 00:06 | 32.73362 | -117.20572 | 29 ft | 9 kts | 36° |
| 2026-04-26 00:06 | 32.73447 | -117.20561 | 29 ft | 16 kts | 2° |
| 2026-04-26 00:06 | 32.73535 | -117.20481 | 29 ft | 16 kts | 50° |
| 2026-04-26 00:06 | 32.73588 | -117.20359 | 29 ft | 15 kts | 102° |
| 2026-04-26 00:07 | 32.73561 | -117.20238 | 29 ft | 16 kts | 106° |
| 2026-04-26 00:07 | 32.73530 | -117.20112 | 29 ft | 16 kts | 106° |
| 2026-04-26 00:07 | 32.73496 | -117.19971 | 29 ft | 19 kts | 106° |
| 2026-04-26 00:07 | 32.73460 | -117.19821 | 29 ft | 19 kts | 106° |
| 2026-04-26 00:08 | 32.73424 | -117.19673 | 29 ft | 19 kts | 106° |
| 2026-04-26 00:08 | 32.73387 | -117.19521 | 29 ft | 20 kts | 106° |
| 2026-04-26 00:08 | 32.73348 | -117.19362 | 29 ft | 20 kts | 106° |
| 2026-04-26 00:08 | 32.73308 | -117.19196 | 28 ft | 21 kts | 106° |
| 2026-04-26 00:09 | 32.73266 | -117.19024 | 29 ft | 22 kts | 106° |
| 2026-04-26 00:09 | 32.73224 | -117.18848 | 29 ft | 22 kts | 106° |
| 2026-04-26 00:09 | 32.73180 | -117.18668 | 29 ft | 23 kts | 106° |
| 2026-04-26 00:09 | 32.73135 | -117.18483 | 28 ft | 24 kts | 106° |
| 2026-04-26 00:10 | 32.73089 | -117.18293 | 28 ft | 24 kts | 106° |
| 2026-04-26 00:10 | 32.73042 | -117.18098 | 28 ft | 25 kts | 106° |
| 2026-04-26 00:10 | 32.72999 | -117.17922 | 28 ft | 18 kts | 106° |
| 2026-04-26 00:10 | 32.72969 | -117.17808 | 28 ft | 11 kts | 108° |
| 2026-04-26 00:11 | 32.72960 | -117.17774 | 28 ft | 3 kts | 108° |
| 2026-04-26 00:11 | 32.72954 | -117.17754 | 28 ft | 0 kts | 108° |
| 2026-04-26 00:11 | 32.72954 | -117.17753 | 28 ft | 0 kts | 108° |
| 2026-04-26 00:11 | 32.72949 | -117.17734 | 29 ft | 5 kts | 105° |
| 2026-04-26 00:12 | 32.72951 | -117.17695 | 29 ft | 1 kts | 73° |
| 2026-04-26 00:12 | 32.72951 | -117.17694 | 29 ft | 0 kts | 74° |
| 2026-04-26 00:13 | 32.72951 | -117.17692 | 29 ft | 2 kts | 74° |
| 2026-04-26 00:13 | 32.72968 | -117.17626 | 28 ft | 15 kts | 72° |
| 2026-04-26 00:13 | 32.73002 | -117.17547 | 28 ft | 7 kts | 21° |
| 2026-04-26 00:13 | 32.73025 | -117.17569 | 28 ft | 3 kts | 277° |
| 2026-04-26 00:14 | 32.73025 | -117.17581 | 28 ft | 0 kts | 279° |
| 2026-04-26 00:15 | 32.73052 | -117.17706 | 28 ft | 45 kts | 285° |
| 2026-04-26 00:15 | 32.73209 | -117.18359 | 28 ft | 116 kts | 286° |
| 2026-04-26 00:15 | 32.73491 | -117.19489 | 145 ft | 160 kts | 285° |
| 2026-04-26 00:15 | 32.73804 | -117.20714 | 1053 ft | 154 kts | 283° |
| 2026-04-26 00:16 | 32.74112 | -117.22023 | 1533 ft | 175 kts | 282° |
| 2026-04-26 00:16 | 32.74454 | -117.23496 | 1785 ft | 195 kts | 283° |
| 2026-04-26 00:16 | 32.74796 | -117.25137 | 1951 ft | 215 kts | 276° |
| 2026-04-26 00:16 | 32.74641 | -117.26933 | 2318 ft | 224 kts | 247° |
| 2026-04-26 00:17 | 32.73689 | -117.28370 | 2939 ft | 227 kts | 216° |
| 2026-04-26 00:17 | 32.72205 | -117.28973 | 3584 ft | 232 kts | 183° |
| 2026-04-26 00:17 | 32.70610 | -117.28573 | 4198 ft | 241 kts | 161° |
| 2026-04-26 00:17 | 32.69049 | -117.27761 | 4754 ft | 246 kts | 157° |
| 2026-04-26 00:18 | 32.67484 | -117.26904 | 5318 ft | 249 kts | 158° |
| 2026-04-26 00:18 | 32.65900 | -117.26053 | 5939 ft | 251 kts | 159° |
| 2026-04-26 00:18 | 32.64344 | -117.25076 | 6550 ft | 255 kts | 145° |
| 2026-04-26 00:18 | 32.63200 | -117.23459 | 7199 ft | 265 kts | 118° |
| 2026-04-26 00:19 | 32.62730 | -117.21268 | 7544 ft | 286 kts | 98° |
| 2026-04-26 00:19 | 32.62599 | -117.19687 | 7838 ft | 294 kts | 97° |
| 2026-04-26 00:19 | 32.62419 | -117.17243 | 8401 ft | 301 kts | 98° |
| 2026-04-26 00:19 | 32.62224 | -117.14761 | 9140 ft | 302 kts | 99° |
| 2026-04-26 00:20 | 32.62016 | -117.12251 | 9728 ft | 310 kts | 99° |
| 2026-04-26 00:20 | 32.62152 | -117.09650 | 10230 ft | 326 kts | 78° |
| 2026-04-26 00:20 | 32.62892 | -117.07027 | 10545 ft | 345 kts | 70° |
| 2026-04-26 00:20 | 32.63807 | -117.04316 | 10814 ft | 362 kts | 70° |
| 2026-04-26 00:21 | 32.64755 | -117.01474 | 11092 ft | 379 kts | 70° |
| 2026-04-26 00:21 | 32.65739 | -116.98512 | 11371 ft | 393 kts | 70° |
| 2026-04-26 00:21 | 32.66551 | -116.95389 | 11764 ft | 398 kts | 84° |
| 2026-04-26 00:21 | 32.66765 | -116.92123 | 12313 ft | 400 kts | 92° |
| 2026-04-26 00:22 | 32.66841 | -116.88798 | 12826 ft | 405 kts | 93° |
| 2026-04-26 00:22 | 32.66906 | -116.85433 | 13354 ft | 411 kts | 94° |
| 2026-04-26 00:22 | 32.66987 | -116.82021 | 13831 ft | 417 kts | 92° |
| 2026-04-26 00:22 | 32.67503 | -116.78593 | 14274 ft | 430 kts | 73° |
| 2026-04-26 00:23 | 32.68948 | -116.75459 | 14773 ft | 438 kts | 51° |
| 2026-04-26 00:23 | 32.71188 | -116.73031 | 15261 ft | 436 kts | 29° |
| 2026-04-26 00:23 | 32.73916 | -116.71515 | 15802 ft | 433 kts | 15° |
| 2026-04-26 00:23 | 32.76760 | -116.70304 | 16339 ft | 436 kts | 15° |
| 2026-04-26 00:24 | 32.79611 | -116.69047 | 16946 ft | 438 kts | 16° |
| 2026-04-26 00:24 | 32.82461 | -116.67732 | 17492 ft | 441 kts | 17° |
| 2026-04-26 00:24 | 32.85317 | -116.66377 | 18033 ft | 444 kts | 17° |
| 2026-04-26 00:24 | 32.88190 | -116.64991 | 18526 ft | 447 kts | 17° |
| 2026-04-26 00:25 | 32.91044 | -116.63605 | 18949 ft | 451 kts | 17° |
| 2026-04-26 00:25 | 32.93963 | -116.62180 | 19359 ft | 456 kts | 17° |
| 2026-04-26 00:25 | 32.96907 | -116.60742 | 19794 ft | 460 kts | 18° |
| 2026-04-26 00:25 | 32.99877 | -116.59285 | 20250 ft | 463 kts | 17° |
| 2026-04-26 00:26 | 33.02865 | -116.57809 | 20701 ft | 466 kts | 18° |
| 2026-04-26 00:26 | 33.05850 | -116.56253 | 21027 ft | 472 kts | 19° |
| 2026-04-26 00:26 | 33.08854 | -116.54662 | 21587 ft | 472 kts | 19° |
| 2026-04-26 00:26 | 33.11856 | -116.53078 | 22049 ft | 475 kts | 19° |
| 2026-04-26 00:27 | 33.14899 | -116.51479 | 22476 ft | 479 kts | 19° |
| 2026-04-26 00:27 | 33.17962 | -116.49872 | 22923 ft | 483 kts | 19° |
| 2026-04-26 00:27 | 33.21051 | -116.48252 | 23380 ft | 486 kts | 19° |
| 2026-04-26 00:27 | 33.24156 | -116.46622 | 23757 ft | 489 kts | 19° |
| 2026-04-26 00:28 | 33.27286 | -116.44981 | 24118 ft | 493 kts | 19° |
| 2026-04-26 00:28 | 33.30443 | -116.43326 | 24514 ft | 496 kts | 20° |
| 2026-04-26 00:28 | 33.33596 | -116.41668 | 24930 ft | 498 kts | 20° |
| 2026-04-26 00:28 | 33.36757 | -116.39907 | 25236 ft | 505 kts | 25° |
| 2026-04-26 00:29 | 33.39704 | -116.37569 | 25566 ft | 513 kts | 38° |
| 2026-04-26 00:29 | 33.42211 | -116.34510 | 25910 ft | 517 kts | 51° |
| 2026-04-26 00:29 | 33.44359 | -116.31064 | 26288 ft | 520 kts | 54° |
| 2026-04-26 00:29 | 33.46472 | -116.27515 | 26632 ft | 523 kts | 55° |
| 2026-04-26 00:30 | 33.48590 | -116.23955 | 26847 ft | 528 kts | 54° |
| 2026-04-26 00:30 | 33.50738 | -116.20349 | 27066 ft | 534 kts | 54° |
| 2026-04-26 00:30 | 33.52902 | -116.16720 | 27392 ft | 537 kts | 54° |
| 2026-04-26 00:30 | 33.55076 | -116.13075 | 27738 ft | 539 kts | 54° |
| 2026-04-26 00:31 | 33.57263 | -116.09408 | 28094 ft | 542 kts | 54° |
| 2026-04-26 00:31 | 33.59477 | -116.05742 | 28435 ft | 545 kts | 52° |
| 2026-04-26 00:31 | 33.61981 | -116.02324 | 28751 ft | 547 kts | 45° |
| 2026-04-26 00:31 | 33.64666 | -115.99084 | 29190 ft | 547 kts | 43° |
| 2026-04-26 00:32 | 33.67417 | -115.95917 | 29557 ft | 549 kts | 42° |
| 2026-04-26 00:32 | 33.70205 | -115.92764 | 29859 ft | 551 kts | 41° |